Time;durP1;ratioP1;P1;durP2;ratioP2;P2;SDS_P1;SDS_P2;PMS_P1;PMS_P2;Temp;Humidity;BMP_temperature;BMP_pressure;BME280_temperature;BME280_humidity;BME280_pressure;Samples;Min_cycle;Max_cycle;Signal;HPM_P1;HPM_P2
2021/03/25 00:00:40;;;;;;;73.13;40.97;;;;;;;5.44;72.94;101075.84;100608;1152;78183;-65
2021/03/25 00:02:49;;;;;;;69.53;38.30;;;;;;;5.43;72.85;101068.77;100592;1152;61650;-60
2021/03/25 00:04:57;;;;;;;68.93;38.23;;;;;;;5.42;72.83;101067.06;100547;1159;81586;-60
2021/03/25 00:07:04;;;;;;;67.43;37.23;;;;;;;5.38;72.75;101071.03;100640;1159;71943;-60
2021/03/25 00:09:17;;;;;;;70.83;37.20;;;;;;;5.34;72.99;101067.77;100557;1152;84699;-60
2021/03/25 00:11:23;;;;;;;65.47;35.47;;;;;;;5.32;73.11;101062.57;100522;1150;78384;-60
2021/03/25 00:13:29;;;;;;;66.57;36.57;;;;;;;5.30;72.90;101066.38;100555;1152;61813;-60
2021/03/25 00:15:35;;;;;;;66.20;36.47;;;;;;;5.27;73.04;101061.30;100542;1159;80548;-60
2021/03/25 00:17:44;;;;;;;65.50;36.73;;;;;;;5.25;73.28;101066.77;100557;1159;71444;-60
2021/03/25 00:19:52;;;;;;;61.97;34.37;;;;;;;5.25;73.30;101053.38;100636;1153;84778;-60
2021/03/25 00:21:58;;;;;;;58.03;33.70;;;;;;;5.23;73.23;101058.03;100598;1152;78265;-60
2021/03/25 00:24:06;;;;;;;59.47;35.33;;;;;;;5.21;72.89;101053.80;100558;1154;61637;-65
2021/03/25 00:26:12;;;;;;;63.70;34.73;;;;;;;5.20;73.39;101055.63;100656;1152;81505;-66
2021/03/25 00:28:19;;;;;;;58.30;34.43;;;;;;;5.23;73.14;101057.19;100552;1159;70691;-60
2021/03/25 00:30:29;;;;;;;62.83;37.20;;;;;;;5.23;73.34;101055.36;100617;1152;83482;-60
2021/03/25 00:32:35;;;;;;;57.87;33.90;;;;;;;5.24;73.33;101061.56;100524;1152;78374;-61
2021/03/25 00:34:41;;;;;;;58.07;33.67;;;;;;;5.24;73.08;101057.06;100823;1152;61822;-60
2021/03/25 00:36:46;;;;;;;58.50;33.87;;;;;;;5.18;73.23;101049.58;100610;1152;81082;-60
2021/03/25 00:38:52;;;;;;;61.27;34.17;;;;;;;5.12;73.11;101044.77;100617;1150;71721;-67
2021/03/25 00:40:58;;;;;;;61.20;33.83;;;;;;;5.15;73.06;101043.64;100605;1152;84801;-65
2021/03/25 00:43:06;;;;;;;63.33;33.23;;;;;;;5.14;73.25;101037.44;100569;1152;78723;-60
2021/03/25 00:45:22;;;;;;;60.77;35.93;;;;;;;5.13;73.02;101045.63;100668;1152;61864;-60
2021/03/25 00:47:32;;;;;;;58.30;32.13;;;;;;;5.15;73.17;101039.14;100542;1152;81582;-61
2021/03/25 00:49:37;;;;;;;53.73;31.63;;;;;;;5.17;73.07;101042.52;100567;1152;72164;-60
2021/03/25 00:51:43;;;;;;;58.00;32.10;;;;;;;5.14;73.13;101033.91;100619;1152;84650;-60
2021/03/25 00:53:49;;;;;;;55.33;32.33;;;;;;;5.13;73.08;101034.91;100605;1152;78533;-61
2021/03/25 00:55:55;;;;;;;52.57;30.87;;;;;;;5.12;73.03;101031.38;100625;1149;61577;-60
2021/03/25 00:58:04;;;;;;;57.20;31.00;;;;;;;5.07;73.21;101027.42;100549;1152;81672;-65
2021/03/25 01:00:17;;;;;;;53.40;30.97;;;;;;;5.06;73.12;101031.92;100583;1159;71460;-65
2021/03/25 01:02:22;;;;;;;54.80;31.43;;;;;;;5.06;73.43;101031.92;100556;1152;84474;-65
2021/03/25 01:04:31;;;;;;;51.53;30.83;;;;;;;5.06;73.33;101031.08;100572;1150;77106;-60
2021/03/25 01:06:36;;;;;;;53.37;31.20;;;;;;;5.05;73.33;101029.41;100546;1154;61642;-60
2021/03/25 01:08:42;;;;;;;59.00;31.77;;;;;;;5.02;73.33;101027.00;100544;1159;82340;-66
2021/03/25 01:10:52;;;;;;;58.87;33.40;;;;;;;5.00;73.33;101021.77;100534;1159;71777;-66
2021/03/25 01:12:59;;;;;;;56.17;31.47;;;;;;;5.01;73.45;101030.65;100623;1149;83959;-66
2021/03/25 01:15:07;;;;;;;61.40;32.25;;;;;;;5.01;73.49;101025.30;100562;1152;77755;-65
2021/03/25 01:17:16;;;;;;;54.33;31.23;;;;;;;5.00;73.57;101027.13;100588;1152;61748;-65
2021/03/25 01:19:30;;;;;;;57.93;30.97;;;;;;;5.00;73.59;101019.09;100526;1159;80867;-60
2021/03/25 01:21:36;;;;;;;54.97;30.30;;;;;;;4.96;73.39;101020.36;100551;1151;70829;-59
2021/03/25 01:23:41;;;;;;;48.93;29.20;;;;;;;4.96;73.53;101023.05;100594;1149;84128;-64
2021/03/25 01:25:48;;;;;;;44.50;28.50;;;;;;;5.00;73.46;101013.73;101117;1152;78653;-63
2021/03/25 01:27:58;;;;;;;47.43;27.70;;;;;;;5.02;73.34;101014.47;100574;1152;61603;-59
2021/03/25 01:30:08;;;;;;;50.87;29.27;;;;;;;5.02;73.25;101014.47;100557;1159;81132;-59
2021/03/25 01:32:14;;;;;;;52.57;30.57;;;;;;;4.99;73.20;101012.06;100654;1152;72401;-60
2021/03/25 01:34:23;;;;;;;49.07;28.53;;;;;;;4.98;73.27;101005.00;100635;1152;85653;-60
2021/03/25 01:36:29;;;;;;;48.83;28.17;;;;;;;4.98;73.23;101005.00;100595;1152;78022;-59
2021/03/25 01:38:34;;;;;;;48.57;27.87;;;;;;;4.94;73.30;101008.96;100589;1150;61747;-60
2021/03/25 01:40:45;;;;;;;50.73;28.53;;;;;;;4.95;73.03;101009.78;100551;1150;82156;-59
2021/03/25 01:42:51;;;;;;;48.33;27.53;;;;;;;4.94;73.45;101008.96;100654;1152;71227;-60
2021/03/25 01:44:57;;;;;;;47.97;27.27;;;;;;;4.96;73.21;101006.98;100626;1152;84115;-60
2021/03/25 01:47:07;;;;;;;44.23;25.97;;;;;;;4.98;73.17;100999.65;100568;1152;77659;-59
2021/03/25 01:49:16;;;;;;;47.73;26.70;;;;;;;5.01;73.13;101004.73;100628;1152;62054;-63
2021/03/25 01:51:51;;;;;;;48.37;28.00;;;;;;;5.01;73.11;101003.88;100647;1151;82324;-63
2021/03/25 01:54:21;;;;;;;44.20;28.10;;;;;;;4.95;72.90;101007.95;100542;1159;71026;-64
2021/03/25 01:56:42;;;;;;;43.83;27.10;;;;;;;4.95;72.74;101001.75;100639;1152;83472;-66
2021/03/25 01:59:20;;;;;;;45.87;27.27;;;;;;;4.93;72.76;101004.58;100561;1152;77408;-60
2021/03/25 02:01:38;;;;;;;46.47;27.70;;;;;;;4.92;72.54;101008.23;100562;1150;61838;-60
2021/03/25 02:04:21;;;;;;;45.60;27.80;;;;;;;4.95;72.75;100999.07;100634;1152;81067;-60
2021/03/25 02:06:38;;;;;;;43.37;25.47;;;;;;;4.96;72.81;101001.63;100231;1154;72070;-60
2021/03/25 02:09:05;;;;;;;43.27;25.50;;;;;;;4.96;72.66;101000.77;100182;1154;83954;-59
2021/03/25 02:11:24;;;;;;;44.10;25.60;;;;;;;4.93;72.66;100993.88;100184;1152;77875;-60
2021/03/25 02:13:36;;;;;;;39.83;24.43;;;;;;;4.90;72.71;100994.14;100572;1152;61762;-65
2021/03/25 02:15:55;;;;;;;44.13;25.97;;;;;;;4.87;72.67;101001.59;100537;1159;82429;-65
2021/03/25 02:18:08;;;;;;;42.60;24.63;;;;;;;4.89;72.92;101002.33;100558;1152;71546;-65
2021/03/25 02:21:01;;;;;;;39.93;25.27;;;;;;;4.90;72.67;100999.50;100595;1150;84688;-65
2021/03/25 02:23:38;;;;;;;43.13;26.53;;;;;;;4.88;72.66;100993.44;100572;1152;78215;-60
2021/03/25 02:25:49;;;;;;;43.40;25.57;;;;;;;4.87;72.84;100994.41;100647;1152;61846;-60
2021/03/25 02:28:08;;;;;;;47.63;28.73;;;;;;;4.87;73.06;100997.09;100538;1159;80923;-65
2021/03/25 02:30:18;;;;;;;46.63;28.97;;;;;;;4.85;72.76;101007.10;100667;1149;72706;-65
2021/03/25 02:32:29;;;;;;;46.57;28.27;;;;;;;4.78;72.65;101004.11;100607;1152;84930;-66
2021/03/25 02:34:40;;;;;;;49.40;31.13;;;;;;;4.75;72.79;100991.00;100577;1152;78306;-60
2021/03/25 02:36:54;;;;;;;44.33;27.53;;;;;;;4.79;72.67;100996.94;100567;1152;62002;-60
2021/03/25 02:39:03;;;;;;;;;;;;;;;4.78;72.68;100995.23;100564;1159;81680;-60
2021/03/25 02:41:18;;;;;;;44.83;25.03;;;;;;;4.81;72.71;100994.96;100637;1152;71017;-59
2021/03/25 02:43:33;;;;;;;44.20;27.00;;;;;;;4.83;72.74;100994.84;100617;1152;83798;-64
2021/03/25 02:45:45;;;;;;;43.03;25.03;;;;;;;4.79;72.79;100994.27;101022;1152;77684;-64
2021/03/25 02:47:58;;;;;;;38.97;26.43;;;;;;;4.76;72.60;100991.86;100601;1149;61744;-64
2021/03/25 02:50:12;;;;;;;44.90;25.43;;;;;;;4.75;72.80;100998.21;100513;1159;82139;-64
2021/03/25 02:52:30;;;;;;;45.77;25.93;;;;;;;4.76;72.74;100989.18;100583;1159;72297;-64
2021/03/25 02:54:39;;;;;;;43.47;26.37;;;;;;;4.74;72.88;100988.48;100597;1152;84338;-65
2021/03/25 02:56:51;;;;;;;41.43;24.63;;;;;;;4.72;72.80;100993.13;100720;1152;77792;-65
2021/03/25 02:59:03;;;;;;;44.53;25.27;;;;;;;4.72;72.97;100993.13;100541;1152;61835;-65
2021/03/25 03:01:15;;;;;;;43.73;25.30;;;;;;;4.72;73.03;100993.13;100617;1152;82203;-65
2021/03/25 03:03:26;;;;;;;42.93;25.37;;;;;;;4.68;72.81;100997.05;100629;1159;71913;-65
2021/03/25 03:05:36;;;;;;;44.93;26.23;;;;;;;4.63;72.98;100999.30;100610;1152;84784;-66
2021/03/25 03:07:49;;;;;;;40.53;24.63;;;;;;;4.60;73.10;100996.89;100602;1152;78571;-65
2021/03/25 03:10:01;;;;;;;41.80;26.13;;;;;;;4.60;73.11;100987.04;100564;1152;62079;-65
2021/03/25 03:12:16;;;;;;;43.87;24.97;;;;;;;4.61;72.89;100999.45;100548;1159;82807;-65
2021/03/25 03:14:31;;;;;;;39.23;24.60;;;;;;;4.61;73.18;100988.75;100638;1152;71694;-65
2021/03/25 03:16:47;;;;;;;42.53;25.27;;;;;;;4.62;73.14;100982.39;100607;1152;85163;-65
2021/03/25 03:18:59;;;;;;;43.30;25.27;;;;;;;4.63;73.06;100989.44;100578;1152;77306;-65
2021/03/25 03:21:10;;;;;;;43.90;25.80;;;;;;;4.61;73.09;100983.39;100646;1152;61702;-65
2021/03/25 03:23:17;;;;;;;42.70;24.27;;;;;;;4.59;73.15;100990.69;100595;1152;82436;-60
2021/03/25 03:25:25;;;;;;;44.03;25.40;;;;;;;4.61;73.06;100995.92;100633;1152;70969;-60
2021/03/25 03:27:38;;;;;;;39.03;25.03;;;;;;;4.60;73.12;100991.54;101006;1152;84129;-63
2021/03/25 03:29:46;;;;;;;49.27;26.43;;;;;;;4.54;73.28;100992.93;100605;1152;77835;-66
2021/03/25 03:31:56;;;;;;;41.57;25.03;;;;;;;4.53;73.28;100995.76;100626;1152;61663;-66
2021/03/25 03:34:07;;;;;;;39.43;25.23;;;;;;;4.57;73.19;100998.02;100551;1159;81457;-60
2021/03/25 03:36:18;;;;;;;44.43;25.47;;;;;;;4.56;73.32;100992.81;100615;1159;71197;-61
2021/03/25 03:38:31;;;;;;;43.37;25.63;;;;;;;4.56;73.44;100998.16;100609;1152;84146;-60
2021/03/25 03:40:43;;;;;;;45.57;27.10;;;;;;;4.59;73.05;101003.21;100570;1149;77394;-60
2021/03/25 03:42:49;;;;;;;40.53;26.07;;;;;;;4.56;73.26;100992.81;100649;1152;61836;-60
2021/03/25 03:45:01;;;;;;;42.07;25.83;;;;;;;4.53;73.42;100993.90;100653;1149;82535;-60
2021/03/25 03:47:12;;;;;;;40.57;25.10;;;;;;;4.52;73.36;100986.02;100547;1152;72445;-60
2021/03/25 03:49:25;;;;;;;40.23;25.87;;;;;;;4.49;73.45;100984.47;100646;1150;83829;-65
2021/03/25 03:51:45;;;;;;;39.05;24.93;;;;;;;4.52;73.60;100983.34;100572;1152;77478;-65
2021/03/25 03:53:51;;;;;;;42.80;25.03;;;;;;;4.50;73.58;100979.97;100560;1152;61653;-59
2021/03/25 03:56:11;;;;;;;41.63;24.27;;;;;;;4.50;73.63;100980.83;100573;1159;80684;-59
2021/03/25 03:58:25;;;;;;;40.93;24.70;;;;;;;4.50;73.57;100986.17;100616;1152;71064;-63
2021/03/25 04:00:37;;;;;;;38.13;23.55;;;;;;;4.48;73.46;100981.91;100559;1152;83322;-64
2021/03/25 04:02:53;;;;;;;40.13;25.13;;;;;;;4.50;73.47;100990.67;100569;1152;78647;-64
2021/03/25 04:05:12;;;;;;;40.57;25.50;;;;;;;4.53;73.54;100985.05;100630;1149;61791;-64
2021/03/25 04:07:26;;;;;;;40.80;24.67;;;;;;;4.54;73.51;100994.75;100574;1152;81606;-64
2021/03/25 04:09:41;;;;;;;42.38;25.13;;;;;;;4.52;73.49;100994.91;100585;1149;70786;-59
2021/03/25 04:11:53;;;;;;;44.67;26.13;;;;;;;4.52;73.37;100991.38;100577;1152;84614;-60
2021/03/25 04:14:03;;;;;;;44.47;27.03;;;;;;;4.49;73.47;101002.34;100599;1150;78287;-65
2021/03/25 04:16:09;;;;;;;59.60;33.80;;;;;;;4.45;73.51;100995.59;100539;1152;62238;-65
2021/03/25 04:18:23;;;;;;;51.93;30.20;;;;;;;4.42;73.76;101003.88;100509;1153;82328;-60
2021/03/25 04:20:31;;;;;;;53.13;31.30;;;;;;;4.37;73.76;101001.59;100656;1150;72021;-60
2021/03/25 04:22:46;;;;;;;49.60;29.03;;;;;;;4.40;73.90;101006.67;100619;1150;84697;-60
2021/03/25 04:24:59;;;;;;;49.10;29.73;;;;;;;4.40;73.91;101003.14;100573;1152;78413;-60
2021/03/25 04:27:11;;;;;;;50.63;29.13;;;;;;;4.42;73.87;101001.20;100583;1152;61579;-60
2021/03/25 04:29:25;;;;;;;46.87;28.63;;;;;;;4.42;73.81;100996.67;100708;1152;80887;-60
2021/03/25 04:31:31;;;;;;;49.95;29.50;;;;;;;4.40;73.91;100995.13;100547;1159;70553;-60
2021/03/25 04:33:39;;;;;;;46.37;26.73;;;;;;;4.41;73.86;100997.68;100589;1152;84855;-60
2021/03/25 04:35:46;;;;;;;46.23;28.33;;;;;;;4.43;73.92;101001.06;100538;1153;77718;-60
2021/03/25 04:37:53;;;;;;;45.03;24.83;;;;;;;4.46;73.98;101002.61;100412;1152;61810;-64
2021/03/25 04:40:01;;;;;;;46.40;26.93;;;;;;;4.46;73.70;101002.61;100436;1159;82853;-65
2021/03/25 04:42:10;;;;;;;48.60;27.47;;;;;;;4.42;73.88;100995.86;100590;1153;71233;-65
2021/03/25 04:44:33;;;;;;;44.63;26.80;;;;;;;4.44;73.95;101007.26;100539;1153;83249;-65
2021/03/25 04:46:52;;;;;;;43.30;27.27;;;;;;;4.41;73.87;100999.50;100505;1153;77811;-65
2021/03/25 04:49:02;;;;;;;46.70;27.43;;;;;;;4.43;74.09;101000.20;100544;1153;61900;-65
2021/03/25 04:51:13;;;;;;;45.43;27.10;;;;;;;4.42;74.06;101006.56;100555;1152;82701;-65
2021/03/25 04:53:26;;;;;;;50.20;28.73;;;;;;;4.38;74.01;101005.97;100572;1153;71653;-60
2021/03/25 04:55:36;;;;;;;46.37;26.33;;;;;;;4.30;74.11;101007.63;100593;1153;84907;-60
2021/03/25 04:57:50;;;;;;;42.43;26.53;;;;;;;4.33;74.24;101012.70;100478;1153;78157;-64
2021/03/25 05:00:05;;;;;;;45.05;26.50;;;;;;;4.37;73.89;101012.29;100494;1153;61692;-65
2021/03/25 05:02:14;;;;;;;44.60;26.87;;;;;;;4.38;74.32;101005.97;100430;1159;82656;-65
2021/03/25 05:04:20;;;;;;;44.30;26.83;;;;;;;4.42;74.26;101001.20;100555;1152;71415;-60
2021/03/25 05:06:36;;;;;;;45.80;27.30;;;;;;;4.42;74.31;101004.70;100520;1153;83820;-60
2021/03/25 05:08:42;;;;;;;49.27;28.20;;;;;;;4.45;74.28;101003.61;100590;1152;77205;-65
2021/03/25 05:11:01;;;;;;;50.90;28.80;;;;;;;4.43;74.24;101003.73;100628;1152;61750;-65
2021/03/25 05:13:19;;;;;;;50.33;30.03;;;;;;;4.40;74.57;101009.34;100474;1159;82178;-60
2021/03/25 05:15:30;;;;;;;46.17;28.43;;;;;;;4.47;74.51;101015.02;100493;1154;70996;-60
2021/03/25 05:17:49;;;;;;;49.37;30.27;;;;;;;4.46;74.46;101010.64;100550;1153;83660;-65
2021/03/25 05:20:05;;;;;;;49.23;29.00;;;;;;;4.47;74.43;101021.22;100453;1153;78150;-66
2021/03/25 05:22:23;;;;;;;49.33;29.57;;;;;;;4.50;74.57;101020.95;100454;1154;61733;-65
2021/03/25 05:24:39;;;;;;;48.20;30.27;;;;;;;4.54;74.51;101021.51;100467;1153;81750;-65
2021/03/25 05:26:50;;;;;;;47.83;28.70;;;;;;;4.58;74.62;101014.92;100588;1159;72106;-65
2021/03/25 05:29:00;;;;;;;47.40;29.00;;;;;;;4.58;74.59;101017.59;100407;1153;84373;-65
2021/03/25 05:31:11;;;;;;;46.50;29.60;;;;;;;4.61;74.57;101017.33;100486;1153;77892;-66
2021/03/25 05:33:22;;;;;;;49.20;29.53;;;;;;;4.63;74.50;101007.33;100510;1154;61691;-61
2021/03/25 05:35:33;;;;;;;49.07;28.90;;;;;;;4.62;74.56;101009.14;100460;1159;82116;-61
2021/03/25 05:37:39;;;;;;;48.90;29.17;;;;;;;4.64;74.35;101020.55;100483;1153;71187;-61
2021/03/25 05:39:48;;;;;;;51.57;30.37;;;;;;;4.68;74.36;101010.43;100602;1153;83321;-60
2021/03/25 05:42:13;;;;;;;53.53;31.47;;;;;;;4.71;74.47;101018.19;100419;1153;78315;-61
2021/03/25 05:45:09;;;;;;;50.20;30.83;;;;;;;4.75;74.67;101015.09;100552;1153;61837;-66
2021/03/25 05:47:30;;;;;;;;;;;;;;;4.75;74.66;101016.95;100373;1159;81932;-65
2021/03/25 05:49:56;;;;;;;54.33;28.87;;;;;;;4.83;74.62;101017.11;100383;1153;71452;-65
2021/03/25 05:52:24;;;;;;;49.30;30.73;;;;;;;4.88;74.57;101022.03;100508;1153;83315;-66
2021/03/25 05:54:40;;;;;;;49.57;28.97;;;;;;;4.96;74.42;101023.05;100395;1153;77262;-60
2021/03/25 05:57:06;;;;;;;52.23;29.80;;;;;;;4.99;74.49;101028.13;100568;1153;61650;-60
2021/03/25 05:59:17;;;;;;;44.63;28.67;;;;;;;5.01;74.49;101025.30;100401;1159;83153;-66
2021/03/25 06:01:38;;;;;;;48.97;31.27;;;;;;;5.05;74.61;101022.22;100526;1159;71872;-66
2021/03/25 06:03:59;;;;;;;50.13;30.13;;;;;;;5.09;74.60;101028.98;100464;1153;84136;-61
2021/03/25 06:06:11;;;;;;;52.13;29.90;;;;;;;5.09;74.55;101028.98;100435;1152;77524;-62
2021/03/25 06:08:37;;;;;;;54.10;30.53;;;;;;;5.12;74.26;101028.70;100349;1153;61768;-61
2021/03/25 06:11:14;;;;;;;49.50;30.53;;;;;;;5.17;74.37;101025.59;100435;1159;82216;-61
2021/03/25 06:13:48;;;;;;;50.47;31.10;;;;;;;5.25;74.14;101028.42;100509;1153;71339;-62
2021/03/25 06:16:16;;;;;;;50.65;30.75;;;;;;;5.29;74.20;101030.70;100468;1153;83641;-60
2021/03/25 06:18:45;;;;;;;48.30;31.17;;;;;;;5.33;74.40;101032.09;100424;1153;78114;-60
2021/03/25 06:21:03;;;;;;;50.47;31.67;;;;;;;5.33;74.29;101025.88;100436;1153;62118;-60
2021/03/25 06:23:37;;;;;;;54.90;34.07;;;;;;;5.36;74.11;101031.82;100469;1153;81829;-61
2021/03/25 06:25:54;;;;;;;46.58;25.05;;;;;;;5.38;74.17;101030.84;100427;1159;72146;-60
2021/03/25 06:28:27;;;;;;;53.80;30.43;;;;;;;5.41;74.12;101027.89;100488;1153;84128;-65
2021/03/25 06:30:38;;;;;;;54.37;32.23;;;;;;;5.40;74.25;101024.36;100560;1153;77625;-66
2021/03/25 06:32:55;;;;;;;56.83;33.13;;;;;;;5.47;74.40;101029.98;100435;1154;61888;-65
2021/03/25 06:35:12;;;;;;;59.93;33.00;;;;;;;5.55;74.06;101030.14;100430;1159;82136;-66
2021/03/25 06:37:22;;;;;;;50.70;32.10;;;;;;;5.51;73.97;101028.72;100381;1159;71085;-66
2021/03/25 06:39:48;;;;;;;54.37;32.23;;;;;;;5.53;74.30;101030.27;100913;1152;83303;-60
2021/03/25 06:42:06;;;;;;;49.68;31.60;;;;;;;5.61;73.85;101026.88;100421;1153;78187;-61
2021/03/25 06:44:20;;;;;;;52.30;31.87;;;;;;;5.67;73.57;101028.98;100497;1153;61711;-66
2021/03/25 06:46:30;;;;;;;49.63;29.63;;;;;;;5.71;73.54;101033.91;100438;1159;82214;-66
2021/03/25 06:48:44;;;;;;;51.07;30.70;;;;;;;5.79;73.31;101033.22;100479;1159;70974;-67
2021/03/25 06:50:53;;;;;;;55.87;30.17;;;;;;;5.88;73.39;101032.38;100444;1153;84624;-66
2021/03/25 06:53:24;;;;;;;48.07;28.93;;;;;;;5.93;72.99;101039.00;100476;1153;77436;-61
2021/03/25 06:55:30;;;;;;;42.23;28.17;;;;;;;6.02;73.25;101037.29;100485;1153;61837;-61
2021/03/25 06:57:45;;;;;;;46.87;28.77;;;;;;;6.07;73.33;101045.74;100458;1153;82477;-65
2021/03/25 06:59:55;;;;;;;47.13;28.73;;;;;;;6.07;73.11;101042.23;100466;1159;70633;-66
2021/03/25 07:02:20;;;;;;;44.50;27.87;;;;;;;6.08;72.98;101049.27;100503;1152;84064;-65
2021/03/25 07:04:35;;;;;;;44.30;27.93;;;;;;;6.13;72.91;101047.00;100414;1153;77846;-65
2021/03/25 07:06:42;;;;;;;50.40;28.87;;;;;;;6.16;72.73;101042.20;100477;1153;61660;-66
2021/03/25 07:08:48;;;;;;;43.23;26.87;;;;;;;6.21;72.95;101047.12;100391;1159;81429;-60
2021/03/25 07:11:02;;;;;;;48.30;27.60;;;;;;;6.28;72.72;101049.09;100553;1153;71160;-61
2021/03/25 07:13:08;;;;;;;43.83;26.30;;;;;;;6.30;72.45;101039.05;100510;1153;83623;-66
2021/03/25 07:15:25;;;;;;;51.80;28.37;;;;;;;6.38;72.22;101041.85;100458;1153;77381;-65
2021/03/25 07:17:39;;;;;;;44.37;27.67;;;;;;;6.45;72.28;101045.66;100467;1153;61803;-64
2021/03/25 07:19:49;;;;;;;45.67;27.47;;;;;;;6.57;72.01;101046.30;100529;1154;82308;-60
2021/03/25 07:22:20;;;;;;;47.40;28.40;;;;;;;6.64;71.98;101042.04;100466;1159;72156;-61
2021/03/25 07:24:34;;;;;;;45.97;28.00;;;;;;;6.73;72.01;101046.50;100556;1153;84552;-60
2021/03/25 07:26:44;;;;;;;43.13;25.38;;;;;;;6.60;71.56;101045.15;100441;1153;78428;-60
2021/03/25 07:29:05;;;;;;;46.00;27.67;;;;;;;6.72;71.53;101047.51;100524;1153;61717;-66
2021/03/25 07:31:15;;;;;;;41.30;25.13;;;;;;;6.75;71.60;101055.27;100423;1159;82280;-66
2021/03/25 07:33:28;;;;;;;44.40;26.30;;;;;;;6.73;71.14;101053.73;100444;1159;71212;-61
2021/03/25 07:35:39;;;;;;;39.97;24.67;;;;;;;6.79;71.38;101053.11;100551;1153;83151;-60
2021/03/25 07:37:48;;;;;;;40.73;25.87;;;;;;;6.87;71.40;101058.58;100505;1153;77658;-67
2021/03/25 07:40:05;;;;;;;38.50;25.07;;;;;;;6.90;70.66;101053.77;100536;1153;61800;-66
2021/03/25 07:42:12;;;;;;;36.40;23.20;;;;;;;6.94;70.31;101054.32;100408;1159;82851;-66
2021/03/25 07:44:40;;;;;;;42.03;26.17;;;;;;;6.98;69.87;101053.86;100533;1153;70972;-67
2021/03/25 07:46:54;;;;;;;33.77;23.07;;;;;;;7.03;69.98;101058.80;100480;1153;84071;-66
2021/03/25 07:49:07;;;;;;;36.80;23.13;;;;;;;7.00;69.68;101054.55;100560;1152;78708;-65
2021/03/25 07:51:16;;;;;;;37.38;23.25;;;;;;;7.00;69.57;101054.55;100417;1153;61748;-63
2021/03/25 07:53:27;;;;;;;35.03;22.43;;;;;;;6.91;69.26;101049.24;100512;1159;82977;-61
2021/03/25 07:55:33;;;;;;;36.90;23.50;;;;;;;6.99;69.33;101058.25;100522;1159;70848;-60
2021/03/25 07:57:46;;;;;;;36.97;23.13;;;;;;;7.13;69.74;101048.83;100544;1153;83524;-61
2021/03/25 07:59:55;;;;;;;61.58;37.63;;;;;;;7.31;69.59;101048.83;100418;1153;77579;-61
2021/03/25 08:02:27;;;;;;;46.40;29.27;;;;;;;7.43;68.85;101045.78;100720;1153;61817;-61
2021/03/25 08:04:36;;;;;;;37.93;24.17;;;;;;;7.55;68.80;101038.34;100587;1151;83058;-62
2021/03/25 08:06:42;;;;;;;35.93;23.07;;;;;;;7.64;68.35;101040.93;100565;1150;71716;-61
2021/03/25 08:09:08;;;;;;;34.23;23.33;;;;;;;7.63;67.87;101050.02;100801;1150;84674;-61
2021/03/25 08:11:20;;;;;;;40.20;27.43;;;;;;;7.70;67.46;101036.78;100558;1150;77826;-60
2021/03/25 08:13:29;;;;;;;36.50;24.90;;;;;;;7.77;67.13;101042.39;100659;1151;61833;-59
2021/03/25 08:15:44;;;;;;;31.20;22.60;;;;;;;7.82;67.26;101050.84;100594;1151;81630;-58
2021/03/25 08:18:07;;;;;;;33.33;22.43;;;;;;;7.79;66.94;101057.38;100640;1159;71899;-58
2021/03/25 08:20:26;;;;;;;31.93;21.60;;;;;;;7.87;66.69;101049.37;100609;1151;85001;-62
2021/03/25 08:23:07;;;;;;;32.20;21.63;;;;;;;7.91;66.27;101049.91;100571;1151;77651;-62
2021/03/25 08:25:41;;;;;;;29.27;20.77;;;;;;;7.84;66.15;101040.76;100562;1152;61839;-58
2021/03/25 08:28:02;;;;;;;43.75;33.35;;;;;;;7.77;65.43;101045.94;100513;1159;82810;-58
2021/03/25 08:30:29;;;;;;;46.00;32.13;;;;;;;7.83;65.25;101049.84;100905;1150;72045;-62
2021/03/25 08:32:59;;;;;;;30.57;21.87;;;;;;;7.96;65.85;101042.20;100606;1150;83737;-61
2021/03/25 08:35:22;;;;;;;28.83;19.80;;;;;;;8.14;64.85;101046.54;100588;1151;77628;-61
2021/03/25 08:38:13;;;;;;;32.28;21.98;;;;;;;8.19;64.83;101043.36;100630;1152;61709;-62
2021/03/25 08:40:26;;;;;;;32.47;20.77;;;;;;;8.34;64.47;101044.52;100531;1159;82584;-63
2021/03/25 08:42:40;;;;;;;46.30;31.73;;;;;;;8.58;64.08;101046.48;100616;1151;71803;-63
2021/03/25 08:44:49;;;;;;;;;;;;;;;8.80;63.92;101038.69;100570;1159;84650;-64
2021/03/25 08:47:05;;;;;;;37.70;27.53;;;;;;;9.05;63.73;101042.31;100648;1151;78682;-63
2021/03/25 08:49:19;;;;;;;31.97;23.87;;;;;;;9.30;63.59;101044.07;100579;1151;62021;-60
2021/03/25 08:51:34;;;;;;;32.60;22.27;;;;;;;9.41;63.24;101040.21;100644;1158;82395;-60
2021/03/25 08:53:48;;;;;;;33.33;24.03;;;;;;;9.62;63.17;101035.17;100849;1151;71972;-60
2021/03/25 08:55:52;;;;;;;30.27;21.33;;;;;;;9.75;62.22;101032.80;100576;1151;84884;-64
2021/03/25 08:58:03;;;;;;;32.03;21.93;;;;;;;9.81;62.47;101039.39;100516;1151;77577;-63
2021/03/25 09:00:22;;;;;;;29.40;21.53;;;;;;;10.01;59.30;101041.59;100480;1153;61608;-63
2021/03/25 09:02:39;;;;;;;35.87;25.27;;;;;;;9.72;60.74;101035.88;100404;1159;85020;-59
2021/03/25 09:04:53;;;;;;;98.03;60.07;;;;;;;9.90;60.87;101036.53;100447;1153;71708;-59
2021/03/25 09:06:59;;;;;;;;;;;;;;;9.99;60.24;101040.92;100590;1159;84250;-61
2021/03/25 09:09:39;;;;;;;44.03;29.93;;;;;;;10.20;60.73;101039.56;100527;1153;78229;-61
2021/03/25 09:11:51;;;;;;;102.03;65.43;;;;;;;10.24;60.07;101039.06;100438;1154;61762;-67
2021/03/25 09:14:01;;;;;;;89.20;58.60;;;;;;;10.44;59.97;101051.16;100552;1159;81558;-65
2021/03/25 09:16:18;;;;;;;39.77;26.63;;;;;;;10.50;59.80;101044.22;100558;1159;71474;-66
2021/03/25 09:18:29;;;;;;;32.13;23.63;;;;;;;10.59;59.05;101040.48;100423;1153;84394;-66
2021/03/25 09:20:39;;;;;;;34.40;22.27;;;;;;;10.64;58.71;101038.11;100615;1153;77008;-66
2021/03/25 09:22:52;;;;;;;27.80;21.70;;;;;;;10.54;58.62;101038.31;100769;1152;61640;-62
2021/03/25 09:25:40;;;;;;;30.77;22.47;;;;;;;10.49;58.52;101037.16;100396;1153;81570;-61
2021/03/25 09:27:57;;;;;;;33.73;24.43;;;;;;;10.77;58.04;101038.39;100561;1152;71471;-66
2021/03/25 09:30:36;;;;;;;34.93;26.90;;;;;;;10.80;57.89;101031.78;100573;1152;83938;-70
2021/03/25 09:32:43;;;;;;;40.87;29.13;;;;;;;10.89;57.38;101033.44;100501;1152;78285;-60
2021/03/25 09:34:52;;;;;;;36.23;27.20;;;;;;;11.12;57.82;101023.55;100458;1154;61788;-61
2021/03/25 09:37:16;;;;;;;33.80;25.47;;;;;;;11.43;57.89;101027.05;100412;1159;83066;-68
2021/03/25 09:39:31;;;;;;;33.10;24.45;;;;;;;11.64;57.49;101031.81;100614;1152;71010;-68
2021/03/25 09:41:41;;;;;;;31.57;23.50;;;;;;;11.73;57.15;101020.77;100695;1152;83399;-61
2021/03/25 09:43:48;;;;;;;37.03;25.20;;;;;;;11.91;56.62;101022.31;100260;1153;78547;-61
2021/03/25 09:45:55;;;;;;;32.07;23.83;;;;;;;11.97;56.12;101022.44;100635;1153;61631;-67
2021/03/25 09:48:06;;;;;;;31.57;24.17;;;;;;;12.03;56.14;101024.39;100411;1153;82227;-67
2021/03/25 09:50:25;;;;;;;31.83;25.30;;;;;;;12.09;55.54;101022.81;100740;1152;71197;-67
2021/03/25 09:52:36;;;;;;;33.47;24.27;;;;;;;12.05;55.08;101024.22;100455;1153;83507;-61
2021/03/25 09:55:08;;;;;;;33.43;26.30;;;;;;;11.93;55.00;101026.52;100462;1153;77689;-61
2021/03/25 09:57:27;;;;;;;50.97;40.43;;;;;;;11.64;54.88;101026.41;100589;1153;61807;-66
2021/03/25 09:59:52;;;;;;;41.63;30.80;;;;;;;11.53;55.15;101024.97;100494;1153;82922;-67
2021/03/25 10:02:01;;;;;;;35.27;26.47;;;;;;;11.48;54.40;101021.93;100609;1159;70658;-67
2021/03/25 10:04:41;;;;;;;32.07;25.43;;;;;;;11.89;54.31;101022.52;100611;1152;83510;-67
2021/03/25 10:06:59;;;;;;;37.03;27.83;;;;;;;12.07;55.10;101022.16;100556;1152;78639;-60
2021/03/25 10:09:05;;;;;;;35.63;26.67;;;;;;;12.21;54.52;101011.36;100543;1159;62015;-59
2021/03/25 10:11:48;;;;;;;37.20;27.50;;;;;;;12.32;54.50;101019.03;100533;1159;81543;-73